Aviation Digital Data Service (ADDS)

Output produced by METARs form (0135 UTC 23 November 2017)
found at http://www.aviationweather.gov/adds/metars/
 
HTAR 230000Z 00000KT 9999 FEW020 18/16 Q1014
HTDA 230000Z 00000KT 9999 FEW011 24/23 Q1009 NOSIG
TAF HTDA 222300Z 2300/2406 00000KT 9999 FEW012 
     TEMPO 2306/2310 08010KT TSRA BKN017 FEW018CB 
     BECMG 2315/2318 FEW016 SCT080
       
HTDO 222300Z 10005KT 9999 SCT021 22/18 Q1015 NOSIG
HTDO 222300Z 2300/2324 09010KT 9999 SCT022
       
HTIR 222300Z 00000KT 9999 FEW014 FEW016CB 18/14 Q1018
HTKJ 230000Z 00000KT 9999 BKN023 22/20 Q1013 NOSIG
TAF HTKJ 222300Z 2300/2324 09010KT 9999 BKN024 
     BECMG 2311/2314 FEW032CB SCT034
       
HTMT 230000Z 00000KT 9999 FEW020 25/23 Q1009
HTMW 230000Z 00000KT 9999 FEW018 FEW019CB SCT090 20/19 Q1013 NOSIG
HTMW 222300Z 2300/2324 00000KT 9999 FEW019 FEW020CB SCT080 
     TEMPO 2305/2309 10010KT TS/TSRA SCT024 FEW025 BKN090 
     BECMG 2316/2318 00000KT NSW FEW022 FEW023CB
       
HTZA 230000Z 00000KT 9999 FEW016 FEW018CB 24/23 Q1009 NOSIG
HTZA 222300Z 2300/2324 00000KT 9999 SCT015 FEW017CB 
     BECMG 2302/2304 23010KT BKN016 FEW018CB BKN080 
     TEMPO 2307/2310 TSRA 
     BECMG 2310/2312 08010KT SCT020 FEW022CB